sensor_id;sensor_type;location;lat;lon;timestamp;P1;durP1;ratioP1;P2;durP2;ratioP2
75340;SDS011;64931;47.562;18.920;2023-07-13T00:02:22;7.20;;;4.00;;
75340;SDS011;64931;47.562;18.920;2023-07-13T00:04:48;7.60;;;3.90;;
75340;SDS011;64931;47.562;18.920;2023-07-13T00:07:14;8.60;;;3.80;;
75340;SDS011;64931;47.562;18.920;2023-07-13T00:09:39;6.90;;;3.90;;
75340;SDS011;64931;47.562;18.920;2023-07-13T00:12:05;7.90;;;3.70;;
75340;SDS011;64931;47.562;18.920;2023-07-13T00:14:47;7.10;;;4.40;;
75340;SDS011;64931;47.562;18.920;2023-07-13T00:17:12;8.20;;;3.50;;
75340;SDS011;64931;47.562;18.920;2023-07-13T00:19:38;6.80;;;3.70;;
75340;SDS011;64931;47.562;18.920;2023-07-13T00:22:04;5.80;;;3.50;;
75340;SDS011;64931;47.562;18.920;2023-07-13T00:24:29;7.90;;;3.00;;
75340;SDS011;64931;47.562;18.920;2023-07-13T00:26:54;6.40;;;3.50;;
75340;SDS011;64931;47.562;18.920;2023-07-13T00:29:20;7.80;;;3.10;;
75340;SDS011;64931;47.562;18.920;2023-07-13T00:31:46;6.00;;;2.60;;
75340;SDS011;64931;47.562;18.920;2023-07-13T00:34:11;5.80;;;2.50;;
75340;SDS011;64931;47.562;18.920;2023-07-13T00:36:37;5.90;;;2.40;;
75340;SDS011;64931;47.562;18.920;2023-07-13T00:39:02;5.60;;;1.90;;
75340;SDS011;64931;47.562;18.920;2023-07-13T00:41:29;3.30;;;1.40;;
75340;SDS011;64931;47.562;18.920;2023-07-13T00:43:54;6.20;;;2.00;;
75340;SDS011;64931;47.562;18.920;2023-07-13T00:46:22;3.40;;;1.50;;
75340;SDS011;64931;47.562;18.920;2023-07-13T00:48:50;2.70;;;1.40;;
75340;SDS011;64931;47.562;18.920;2023-07-13T00:51:17;3.60;;;1.30;;
75340;SDS011;64931;47.562;18.920;2023-07-13T00:53:46;3.50;;;1.30;;
75340;SDS011;64931;47.562;18.920;2023-07-13T00:56:11;2.10;;;1.10;;
75340;SDS011;64931;47.562;18.920;2023-07-13T00:58:37;3.40;;;1.40;;
75340;SDS011;64931;47.562;18.920;2023-07-13T01:01:03;3.10;;;1.30;;
75340;SDS011;64931;47.562;18.920;2023-07-13T01:03:28;3.70;;;1.20;;
75340;SDS011;64931;47.562;18.920;2023-07-13T01:05:54;5.30;;;1.70;;
75340;SDS011;64931;47.562;18.920;2023-07-13T01:08:20;3.90;;;1.30;;
75340;SDS011;64931;47.562;18.920;2023-07-13T01:10:52;4.70;;;1.50;;
75340;SDS011;64931;47.562;18.920;2023-07-13T01:13:19;3.30;;;1.40;;
75340;SDS011;64931;47.562;18.920;2023-07-13T01:15:46;4.10;;;1.60;;
75340;SDS011;64931;47.562;18.920;2023-07-13T01:18:14;5.00;;;1.50;;
75340;SDS011;64931;47.562;18.920;2023-07-13T01:20:46;5.10;;;2.00;;
75340;SDS011;64931;47.562;18.920;2023-07-13T01:23:16;5.50;;;1.90;;
75340;SDS011;64931;47.562;18.920;2023-07-13T01:25:41;5.10;;;1.80;;
75340;SDS011;64931;47.562;18.920;2023-07-13T01:28:07;5.40;;;1.80;;
75340;SDS011;64931;47.562;18.920;2023-07-13T01:30:36;4.40;;;1.80;;
75340;SDS011;64931;47.562;18.920;2023-07-13T01:33:05;4.70;;;1.80;;
75340;SDS011;64931;47.562;18.920;2023-07-13T01:35:35;5.30;;;1.50;;
75340;SDS011;64931;47.562;18.920;2023-07-13T01:38:01;3.30;;;1.50;;
75340;SDS011;64931;47.562;18.920;2023-07-13T01:40:28;3.90;;;1.60;;
75340;SDS011;64931;47.562;18.920;2023-07-13T01:42:53;3.20;;;1.60;;
75340;SDS011;64931;47.562;18.920;2023-07-13T01:45:19;4.10;;;1.30;;
75340;SDS011;64931;47.562;18.920;2023-07-13T01:47:44;5.60;;;1.40;;
75340;SDS011;64931;47.562;18.920;2023-07-13T01:50:09;4.40;;;1.50;;
75340;SDS011;64931;47.562;18.920;2023-07-13T01:52:35;2.70;;;1.20;;
75340;SDS011;64931;47.562;18.920;2023-07-13T01:55:00;2.80;;;1.40;;
75340;SDS011;64931;47.562;18.920;2023-07-13T01:57:26;3.60;;;1.60;;
75340;SDS011;64931;47.562;18.920;2023-07-13T01:59:51;4.30;;;1.50;;
75340;SDS011;64931;47.562;18.920;2023-07-13T02:02:17;3.00;;;1.60;;
75340;SDS011;64931;47.562;18.920;2023-07-13T02:04:42;4.80;;;1.70;;
75340;SDS011;64931;47.562;18.920;2023-07-13T02:07:08;3.50;;;1.50;;
75340;SDS011;64931;47.562;18.920;2023-07-13T02:09:34;3.80;;;1.30;;
75340;SDS011;64931;47.562;18.920;2023-07-13T02:12:00;4.10;;;1.50;;
75340;SDS011;64931;47.562;18.920;2023-07-13T02:14:25;3.20;;;1.40;;
75340;SDS011;64931;47.562;18.920;2023-07-13T02:16:51;3.90;;;1.60;;
75340;SDS011;64931;47.562;18.920;2023-07-13T02:19:16;5.20;;;1.80;;
75340;SDS011;64931;47.562;18.920;2023-07-13T02:21:41;4.10;;;1.60;;
75340;SDS011;64931;47.562;18.920;2023-07-13T02:24:07;3.30;;;1.40;;
75340;SDS011;64931;47.562;18.920;2023-07-13T02:26:32;4.20;;;1.70;;
75340;SDS011;64931;47.562;18.920;2023-07-13T02:28:57;2.40;;;1.20;;
75340;SDS011;64931;47.562;18.920;2023-07-13T02:31:23;3.20;;;1.50;;
75340;SDS011;64931;47.562;18.920;2023-07-13T02:33:48;4.10;;;1.40;;
75340;SDS011;64931;47.562;18.920;2023-07-13T02:36:13;2.90;;;1.40;;
75340;SDS011;64931;47.562;18.920;2023-07-13T02:38:41;3.80;;;1.50;;
75340;SDS011;64931;47.562;18.920;2023-07-13T02:41:07;2.10;;;1.20;;
75340;SDS011;64931;47.562;18.920;2023-07-13T02:43:34;3.30;;;1.60;;
75340;SDS011;64931;47.562;18.920;2023-07-13T02:46:00;2.90;;;1.40;;
75340;SDS011;64931;47.562;18.920;2023-07-13T02:48:32;3.60;;;1.20;;
75340;SDS011;64931;47.562;18.920;2023-07-13T02:51:01;2.90;;;1.40;;
75340;SDS011;64931;47.562;18.920;2023-07-13T02:53:26;3.90;;;1.40;;
75340;SDS011;64931;47.562;18.920;2023-07-13T02:55:52;4.00;;;1.40;;
75340;SDS011;64931;47.562;18.920;2023-07-13T02:58:17;2.50;;;1.20;;
75340;SDS011;64931;47.562;18.920;2023-07-13T03:00:43;2.60;;;1.30;;
75340;SDS011;64931;47.562;18.920;2023-07-13T03:05:39;3.70;;;1.20;;
75340;SDS011;64931;47.562;18.920;2023-07-13T03:08:07;3.00;;;1.30;;
75340;SDS011;64931;47.562;18.920;2023-07-13T03:10:33;4.00;;;1.40;;
75340;SDS011;64931;47.562;18.920;2023-07-13T03:12:58;3.80;;;1.10;;
75340;SDS011;64931;47.562;18.920;2023-07-13T03:15:24;3.10;;;1.40;;
75340;SDS011;64931;47.562;18.920;2023-07-13T03:17:49;2.70;;;1.40;;
75340;SDS011;64931;47.562;18.920;2023-07-13T03:20:14;3.70;;;1.40;;
75340;SDS011;64931;47.562;18.920;2023-07-13T03:22:40;2.70;;;1.30;;
75340;SDS011;64931;47.562;18.920;2023-07-13T03:25:07;3.50;;;1.40;;
75340;SDS011;64931;47.562;18.920;2023-07-13T03:27:32;3.60;;;1.30;;
75340;SDS011;64931;47.562;18.920;2023-07-13T03:29:58;2.70;;;1.20;;
75340;SDS011;64931;47.562;18.920;2023-07-13T03:32:23;3.80;;;1.30;;
75340;SDS011;64931;47.562;18.920;2023-07-13T03:34:48;3.50;;;1.30;;
75340;SDS011;64931;47.562;18.920;2023-07-13T03:37:14;3.90;;;1.20;;
75340;SDS011;64931;47.562;18.920;2023-07-13T03:39:39;3.70;;;1.50;;
75340;SDS011;64931;47.562;18.920;2023-07-13T03:42:05;5.80;;;1.60;;
75340;SDS011;64931;47.562;18.920;2023-07-13T03:44:31;4.20;;;1.30;;
75340;SDS011;64931;47.562;18.920;2023-07-13T03:46:56;2.90;;;1.30;;
75340;SDS011;64931;47.562;18.920;2023-07-13T03:49:22;4.50;;;1.80;;
75340;SDS011;64931;47.562;18.920;2023-07-13T03:51:47;3.40;;;1.50;;
75340;SDS011;64931;47.562;18.920;2023-07-13T03:54:12;3.30;;;1.40;;
75340;SDS011;64931;47.562;18.920;2023-07-13T03:56:38;4.10;;;1.70;;
75340;SDS011;64931;47.562;18.920;2023-07-13T03:59:03;4.00;;;1.70;;
75340;SDS011;64931;47.562;18.920;2023-07-13T04:01:28;3.50;;;1.30;;
75340;SDS011;64931;47.562;18.920;2023-07-13T04:03:54;2.50;;;1.30;;
75340;SDS011;64931;47.562;18.920;2023-07-13T04:06:20;3.90;;;1.80;;
75340;SDS011;64931;47.562;18.920;2023-07-13T04:08:49;3.70;;;1.50;;
75340;SDS011;64931;47.562;18.920;2023-07-13T04:11:19;3.80;;;1.70;;
75340;SDS011;64931;47.562;18.920;2023-07-13T04:13:45;3.00;;;1.30;;
75340;SDS011;64931;47.562;18.920;2023-07-13T04:16:11;3.70;;;1.40;;
75340;SDS011;64931;47.562;18.920;2023-07-13T04:18:38;4.10;;;1.60;;
75340;SDS011;64931;47.562;18.920;2023-07-13T04:21:03;3.00;;;1.30;;
75340;SDS011;64931;47.562;18.920;2023-07-13T04:23:29;6.30;;;1.50;;
75340;SDS011;64931;47.562;18.920;2023-07-13T04:25:54;3.70;;;1.50;;
75340;SDS011;64931;47.562;18.920;2023-07-13T04:28:21;2.90;;;1.40;;
75340;SDS011;64931;47.562;18.920;2023-07-13T04:30:47;2.80;;;1.50;;
75340;SDS011;64931;47.562;18.920;2023-07-13T04:33:13;3.20;;;1.50;;
75340;SDS011;64931;47.562;18.920;2023-07-13T04:35:38;4.80;;;1.90;;
75340;SDS011;64931;47.562;18.920;2023-07-13T04:38:04;2.80;;;1.30;;
75340;SDS011;64931;47.562;18.920;2023-07-13T04:40:29;5.30;;;1.60;;
75340;SDS011;64931;47.562;18.920;2023-07-13T04:42:55;5.00;;;1.70;;
75340;SDS011;64931;47.562;18.920;2023-07-13T04:45:21;7.40;;;2.50;;
75340;SDS011;64931;47.562;18.920;2023-07-13T04:47:49;5.50;;;1.60;;
75340;SDS011;64931;47.562;18.920;2023-07-13T04:50:14;3.70;;;1.70;;
75340;SDS011;64931;47.562;18.920;2023-07-13T04:52:51;4.10;;;1.80;;
75340;SDS011;64931;47.562;18.920;2023-07-13T04:55:16;3.80;;;1.80;;
75340;SDS011;64931;47.562;18.920;2023-07-13T04:57:42;5.90;;;2.50;;
75340;SDS011;64931;47.562;18.920;2023-07-13T05:00:08;6.30;;;2.10;;
75340;SDS011;64931;47.562;18.920;2023-07-13T05:02:37;5.40;;;3.00;;
75340;SDS011;64931;47.562;18.920;2023-07-13T05:05:03;7.40;;;3.20;;
75340;SDS011;64931;47.562;18.920;2023-07-13T05:07:29;8.80;;;4.70;;
75340;SDS011;64931;47.562;18.920;2023-07-13T05:09:54;7.60;;;4.80;;
75340;SDS011;64931;47.562;18.920;2023-07-13T05:12:20;7.40;;;4.20;;
75340;SDS011;64931;47.562;18.920;2023-07-13T05:14:45;7.50;;;5.10;;
75340;SDS011;64931;47.562;18.920;2023-07-13T05:17:11;6.30;;;3.90;;
75340;SDS011;64931;47.562;18.920;2023-07-13T05:19:36;6.20;;;3.60;;
75340;SDS011;64931;47.562;18.920;2023-07-13T05:22:02;5.70;;;3.50;;
75340;SDS011;64931;47.562;18.920;2023-07-13T05:24:29;5.20;;;3.60;;
75340;SDS011;64931;47.562;18.920;2023-07-13T05:26:54;6.10;;;3.80;;
75340;SDS011;64931;47.562;18.920;2023-07-13T05:29:20;7.10;;;4.40;;
75340;SDS011;64931;47.562;18.920;2023-07-13T05:31:46;5.80;;;3.70;;
75340;SDS011;64931;47.562;18.920;2023-07-13T05:34:12;5.60;;;3.50;;
75340;SDS011;64931;47.562;18.920;2023-07-13T05:36:38;7.00;;;3.30;;
75340;SDS011;64931;47.562;18.920;2023-07-13T05:39:03;5.30;;;3.10;;
75340;SDS011;64931;47.562;18.920;2023-07-13T05:41:29;5.50;;;3.50;;
75340;SDS011;64931;47.562;18.920;2023-07-13T05:43:54;4.70;;;2.80;;
75340;SDS011;64931;47.562;18.920;2023-07-13T05:46:20;5.30;;;2.90;;
75340;SDS011;64931;47.562;18.920;2023-07-13T05:48:45;9.60;;;3.50;;
75340;SDS011;64931;47.562;18.920;2023-07-13T05:51:11;6.10;;;3.00;;
75340;SDS011;64931;47.562;18.920;2023-07-13T05:53:36;8.30;;;3.30;;
75340;SDS011;64931;47.562;18.920;2023-07-13T05:56:02;5.30;;;3.00;;
75340;SDS011;64931;47.562;18.920;2023-07-13T05:58:27;5.60;;;3.00;;
75340;SDS011;64931;47.562;18.920;2023-07-13T06:01:03;7.20;;;2.90;;
75340;SDS011;64931;47.562;18.920;2023-07-13T06:03:30;6.00;;;3.20;;
75340;SDS011;64931;47.562;18.920;2023-07-13T06:05:56;6.10;;;3.40;;
75340;SDS011;64931;47.562;18.920;2023-07-13T06:08:22;5.30;;;3.10;;
75340;SDS011;64931;47.562;18.920;2023-07-13T06:10:47;5.50;;;3.00;;
75340;SDS011;64931;47.562;18.920;2023-07-13T06:13:12;6.00;;;3.20;;
75340;SDS011;64931;47.562;18.920;2023-07-13T06:15:38;5.40;;;2.60;;
75340;SDS011;64931;47.562;18.920;2023-07-13T06:18:03;6.30;;;2.90;;
75340;SDS011;64931;47.562;18.920;2023-07-13T06:20:29;6.30;;;3.50;;
75340;SDS011;64931;47.562;18.920;2023-07-13T06:22:54;6.80;;;3.60;;
75340;SDS011;64931;47.562;18.920;2023-07-13T06:25:20;5.50;;;3.30;;
75340;SDS011;64931;47.562;18.920;2023-07-13T06:27:45;6.00;;;3.20;;
75340;SDS011;64931;47.562;18.920;2023-07-13T06:30:11;7.30;;;3.80;;
75340;SDS011;64931;47.562;18.920;2023-07-13T06:32:37;7.20;;;3.70;;
75340;SDS011;64931;47.562;18.920;2023-07-13T06:35:02;5.00;;;2.80;;
75340;SDS011;64931;47.562;18.920;2023-07-13T06:37:28;4.70;;;3.00;;
75340;SDS011;64931;47.562;18.920;2023-07-13T06:39:53;4.60;;;3.00;;
75340;SDS011;64931;47.562;18.920;2023-07-13T06:42:19;6.70;;;2.90;;
75340;SDS011;64931;47.562;18.920;2023-07-13T06:44:44;5.70;;;2.90;;
75340;SDS011;64931;47.562;18.920;2023-07-13T06:47:10;5.50;;;3.20;;
75340;SDS011;64931;47.562;18.920;2023-07-13T06:49:35;7.70;;;2.60;;
75340;SDS011;64931;47.562;18.920;2023-07-13T06:52:00;4.90;;;2.80;;
75340;SDS011;64931;47.562;18.920;2023-07-13T06:54:26;5.30;;;2.60;;
75340;SDS011;64931;47.562;18.920;2023-07-13T06:56:51;5.20;;;2.60;;
75340;SDS011;64931;47.562;18.920;2023-07-13T06:59:17;4.70;;;2.70;;
75340;SDS011;64931;47.562;18.920;2023-07-13T07:01:42;5.70;;;2.50;;
75340;SDS011;64931;47.562;18.920;2023-07-13T07:04:08;5.00;;;3.00;;
75340;SDS011;64931;47.562;18.920;2023-07-13T07:06:33;6.50;;;3.30;;
75340;SDS011;64931;47.562;18.920;2023-07-13T07:08:58;4.90;;;2.90;;
75340;SDS011;64931;47.562;18.920;2023-07-13T07:11:24;6.00;;;2.70;;
75340;SDS011;64931;47.562;18.920;2023-07-13T07:13:51;5.40;;;2.90;;
75340;SDS011;64931;47.562;18.920;2023-07-13T07:16:17;4.70;;;2.60;;
75340;SDS011;64931;47.562;18.920;2023-07-13T07:18:43;5.90;;;2.90;;
75340;SDS011;64931;47.562;18.920;2023-07-13T07:21:09;4.80;;;2.90;;
75340;SDS011;64931;47.562;18.920;2023-07-13T07:23:34;4.90;;;2.80;;
75340;SDS011;64931;47.562;18.920;2023-07-13T07:26:00;5.30;;;2.80;;
75340;SDS011;64931;47.562;18.920;2023-07-13T07:28:25;6.60;;;3.00;;
75340;SDS011;64931;47.562;18.920;2023-07-13T07:30:53;8.00;;;3.30;;
75340;SDS011;64931;47.562;18.920;2023-07-13T07:33:19;6.10;;;2.90;;
75340;SDS011;64931;47.562;18.920;2023-07-13T07:35:45;6.00;;;3.00;;
75340;SDS011;64931;47.562;18.920;2023-07-13T07:38:10;7.50;;;2.80;;
75340;SDS011;64931;47.562;18.920;2023-07-13T07:40:36;5.20;;;3.20;;
75340;SDS011;64931;47.562;18.920;2023-07-13T07:43:05;7.00;;;3.20;;
75340;SDS011;64931;47.562;18.920;2023-07-13T07:45:31;6.20;;;3.00;;
75340;SDS011;64931;47.562;18.920;2023-07-13T07:47:57;6.30;;;2.80;;
75340;SDS011;64931;47.562;18.920;2023-07-13T07:50:24;5.90;;;2.80;;
75340;SDS011;64931;47.562;18.920;2023-07-13T07:52:50;4.30;;;2.70;;
75340;SDS011;64931;47.562;18.920;2023-07-13T07:55:16;6.60;;;3.10;;
75340;SDS011;64931;47.562;18.920;2023-07-13T07:57:41;4.90;;;3.00;;
75340;SDS011;64931;47.562;18.920;2023-07-13T08:00:07;4.60;;;2.70;;
75340;SDS011;64931;47.562;18.920;2023-07-13T08:02:32;3.70;;;2.40;;
75340;SDS011;64931;47.562;18.920;2023-07-13T08:04:58;5.50;;;2.80;;
75340;SDS011;64931;47.562;18.920;2023-07-13T08:07:23;5.00;;;2.50;;
75340;SDS011;64931;47.562;18.920;2023-07-13T08:09:51;3.80;;;2.30;;
75340;SDS011;64931;47.562;18.920;2023-07-13T08:12:17;7.30;;;2.80;;
75340;SDS011;64931;47.562;18.920;2023-07-13T08:14:43;7.10;;;3.20;;
75340;SDS011;64931;47.562;18.920;2023-07-13T08:17:08;4.70;;;2.80;;
75340;SDS011;64931;47.562;18.920;2023-07-13T08:19:33;5.20;;;2.60;;
75340;SDS011;64931;47.562;18.920;2023-07-13T08:21:59;4.60;;;2.50;;
75340;SDS011;64931;47.562;18.920;2023-07-13T08:24:24;4.90;;;2.60;;
75340;SDS011;64931;47.562;18.920;2023-07-13T08:26:50;6.20;;;3.10;;
75340;SDS011;64931;47.562;18.920;2023-07-13T08:29:16;5.20;;;2.80;;
75340;SDS011;64931;47.562;18.920;2023-07-13T08:31:41;5.20;;;2.80;;
75340;SDS011;64931;47.562;18.920;2023-07-13T08:34:07;4.90;;;2.80;;
75340;SDS011;64931;47.562;18.920;2023-07-13T08:36:32;5.20;;;2.80;;
75340;SDS011;64931;47.562;18.920;2023-07-13T08:38:58;5.20;;;2.80;;
75340;SDS011;64931;47.562;18.920;2023-07-13T08:41:23;4.80;;;2.60;;
75340;SDS011;64931;47.562;18.920;2023-07-13T08:43:50;6.20;;;2.90;;
75340;SDS011;64931;47.562;18.920;2023-07-13T08:48:46;4.50;;;3.00;;
75340;SDS011;64931;47.562;18.920;2023-07-13T08:53:55;5.20;;;3.00;;
75340;SDS011;64931;47.562;18.920;2023-07-13T08:56:25;5.30;;;3.20;;
75340;SDS011;64931;47.562;18.920;2023-07-13T09:01:38;4.20;;;2.60;;
75340;SDS011;64931;47.562;18.920;2023-07-13T09:04:17;4.70;;;2.50;;
75340;SDS011;64931;47.562;18.920;2023-07-13T09:12:04;6.20;;;2.70;;
75340;SDS011;64931;47.562;18.920;2023-07-13T09:14:37;5.70;;;3.40;;
75340;SDS011;64931;47.562;18.920;2023-07-13T09:17:11;5.00;;;3.30;;
75340;SDS011;64931;47.562;18.920;2023-07-13T09:19:40;5.90;;;3.10;;
75340;SDS011;64931;47.562;18.920;2023-07-13T09:22:07;5.90;;;3.20;;
75340;SDS011;64931;47.562;18.920;2023-07-13T09:27:32;6.00;;;3.40;;
75340;SDS011;64931;47.562;18.920;2023-07-13T09:32:39;6.20;;;3.20;;
75340;SDS011;64931;47.562;18.920;2023-07-13T09:35:18;5.90;;;3.60;;
75340;SDS011;64931;47.562;18.920;2023-07-13T09:37:46;5.10;;;3.40;;
75340;SDS011;64931;47.562;18.920;2023-07-13T09:40:33;7.60;;;3.60;;
75340;SDS011;64931;47.562;18.920;2023-07-13T09:43:03;6.00;;;3.30;;
75340;SDS011;64931;47.562;18.920;2023-07-13T09:45:32;6.20;;;3.20;;
75340;SDS011;64931;47.562;18.920;2023-07-13T09:47:59;6.30;;;3.30;;
75340;SDS011;64931;47.562;18.920;2023-07-13T09:50:28;5.00;;;3.10;;
75340;SDS011;64931;47.562;18.920;2023-07-13T09:52:54;5.10;;;3.00;;
75340;SDS011;64931;47.562;18.920;2023-07-13T09:57:54;6.60;;;2.80;;
75340;SDS011;64931;47.562;18.920;2023-07-13T10:00:29;5.40;;;3.00;;
75340;SDS011;64931;47.562;18.920;2023-07-13T10:03:37;5.70;;;3.20;;
75340;SDS011;64931;47.562;18.920;2023-07-13T10:05:46;4.80;;;2.70;;
75340;SDS011;64931;47.562;18.920;2023-07-13T10:08:23;4.40;;;3.00;;
75340;SDS011;64931;47.562;18.920;2023-07-13T10:11:10;5.70;;;3.00;;
75340;SDS011;64931;47.562;18.920;2023-07-13T10:13:37;6.20;;;3.30;;
75340;SDS011;64931;47.562;18.920;2023-07-13T10:16:07;6.20;;;3.00;;
75340;SDS011;64931;47.562;18.920;2023-07-13T10:18:45;6.00;;;2.90;;
75340;SDS011;64931;47.562;18.920;2023-07-13T10:21:13;6.50;;;2.90;;
75340;SDS011;64931;47.562;18.920;2023-07-13T10:23:39;5.80;;;2.80;;
75340;SDS011;64931;47.562;18.920;2023-07-13T10:26:05;4.60;;;3.00;;
75340;SDS011;64931;47.562;18.920;2023-07-13T10:28:37;4.70;;;2.60;;
75340;SDS011;64931;47.562;18.920;2023-07-13T10:31:04;4.80;;;2.80;;
75340;SDS011;64931;47.562;18.920;2023-07-13T10:33:35;4.90;;;2.60;;
75340;SDS011;64931;47.562;18.920;2023-07-13T10:36:05;5.50;;;2.60;;
75340;SDS011;64931;47.562;18.920;2023-07-13T10:38:50;5.10;;;2.70;;
75340;SDS011;64931;47.562;18.920;2023-07-13T10:41:17;5.60;;;2.80;;
75340;SDS011;64931;47.562;18.920;2023-07-13T10:43:46;4.70;;;2.70;;
75340;SDS011;64931;47.562;18.920;2023-07-13T10:46:15;5.60;;;2.60;;
75340;SDS011;64931;47.562;18.920;2023-07-13T10:48:42;5.20;;;2.50;;
75340;SDS011;64931;47.562;18.920;2023-07-13T10:51:09;5.30;;;2.80;;
75340;SDS011;64931;47.562;18.920;2023-07-13T10:53:36;4.20;;;2.50;;
75340;SDS011;64931;47.562;18.920;2023-07-13T10:56:05;5.40;;;2.60;;
75340;SDS011;64931;47.562;18.920;2023-07-13T10:58:37;4.20;;;2.40;;
75340;SDS011;64931;47.562;18.920;2023-07-13T11:01:11;4.50;;;2.50;;
75340;SDS011;64931;47.562;18.920;2023-07-13T11:03:54;4.30;;;2.50;;
75340;SDS011;64931;47.562;18.920;2023-07-13T11:06:39;5.70;;;2.60;;
75340;SDS011;64931;47.562;18.920;2023-07-13T11:11:46;4.80;;;2.40;;
75340;SDS011;64931;47.562;18.920;2023-07-13T11:14:26;4.00;;;2.50;;
75340;SDS011;64931;47.562;18.920;2023-07-13T11:16:54;4.50;;;2.60;;
75340;SDS011;64931;47.562;18.920;2023-07-13T11:24:52;4.60;;;2.40;;
75340;SDS011;64931;47.562;18.920;2023-07-13T11:27:34;5.90;;;2.60;;
75340;SDS011;64931;47.562;18.920;2023-07-13T11:30:13;4.60;;;2.60;;
75340;SDS011;64931;47.562;18.920;2023-07-13T11:32:43;4.80;;;2.50;;
75340;SDS011;64931;47.562;18.920;2023-07-13T11:35:12;5.10;;;2.50;;
75340;SDS011;64931;47.562;18.920;2023-07-13T11:37:39;4.40;;;2.70;;
75340;SDS011;64931;47.562;18.920;2023-07-13T11:40:04;4.30;;;2.70;;
75340;SDS011;64931;47.562;18.920;2023-07-13T11:42:31;4.40;;;2.60;;
75340;SDS011;64931;47.562;18.920;2023-07-13T11:44:57;6.00;;;2.90;;
75340;SDS011;64931;47.562;18.920;2023-07-13T11:47:22;4.40;;;2.30;;
75340;SDS011;64931;47.562;18.920;2023-07-13T11:49:49;4.30;;;2.70;;
75340;SDS011;64931;47.562;18.920;2023-07-13T11:52:18;5.00;;;2.70;;
75340;SDS011;64931;47.562;18.920;2023-07-13T11:54:56;5.90;;;3.10;;
75340;SDS011;64931;47.562;18.920;2023-07-13T11:57:28;6.70;;;2.70;;
75340;SDS011;64931;47.562;18.920;2023-07-13T11:59:56;4.40;;;2.60;;
75340;SDS011;64931;47.562;18.920;2023-07-13T12:02:27;4.10;;;2.70;;
75340;SDS011;64931;47.562;18.920;2023-07-13T12:04:55;5.80;;;3.00;;
75340;SDS011;64931;47.562;18.920;2023-07-13T12:07:22;5.10;;;2.70;;
75340;SDS011;64931;47.562;18.920;2023-07-13T12:09:47;5.60;;;2.70;;
75340;SDS011;64931;47.562;18.920;2023-07-13T12:12:21;5.90;;;3.20;;
75340;SDS011;64931;47.562;18.920;2023-07-13T12:14:51;5.50;;;3.20;;
75340;SDS011;64931;47.562;18.920;2023-07-13T12:17:24;5.50;;;2.90;;
75340;SDS011;64931;47.562;18.920;2023-07-13T12:19:50;4.80;;;2.90;;
75340;SDS011;64931;47.562;18.920;2023-07-13T12:22:17;4.20;;;2.90;;
75340;SDS011;64931;47.562;18.920;2023-07-13T12:24:44;4.80;;;3.20;;
75340;SDS011;64931;47.562;18.920;2023-07-13T12:27:19;4.40;;;2.70;;
75340;SDS011;64931;47.562;18.920;2023-07-13T12:29:51;4.20;;;2.90;;
75340;SDS011;64931;47.562;18.920;2023-07-13T12:32:21;5.40;;;3.10;;
75340;SDS011;64931;47.562;18.920;2023-07-13T12:34:54;4.80;;;2.80;;
75340;SDS011;64931;47.562;18.920;2023-07-13T12:37:21;5.20;;;3.10;;
75340;SDS011;64931;47.562;18.920;2023-07-13T12:39:47;4.40;;;3.00;;
75340;SDS011;64931;47.562;18.920;2023-07-13T12:44:42;4.30;;;2.90;;
75340;SDS011;64931;47.562;18.920;2023-07-13T12:47:11;4.30;;;2.90;;
75340;SDS011;64931;47.562;18.920;2023-07-13T12:49:42;5.20;;;2.90;;
75340;SDS011;64931;47.562;18.920;2023-07-13T12:52:16;4.30;;;3.00;;
75340;SDS011;64931;47.562;18.920;2023-07-13T12:54:54;5.50;;;3.00;;
75340;SDS011;64931;47.562;18.920;2023-07-13T12:57:22;4.40;;;2.90;;
75340;SDS011;64931;47.562;18.920;2023-07-13T12:59:51;4.30;;;2.80;;
75340;SDS011;64931;47.562;18.920;2023-07-13T13:02:39;5.30;;;2.90;;
75340;SDS011;64931;47.562;18.920;2023-07-13T13:05:03;4.40;;;3.00;;
75340;SDS011;64931;47.562;18.920;2023-07-13T13:07:30;4.20;;;2.80;;
75340;SDS011;64931;47.562;18.920;2023-07-13T13:09:55;4.70;;;3.10;;
75340;SDS011;64931;47.562;18.920;2023-07-13T13:12:21;5.30;;;3.00;;
75340;SDS011;64931;47.562;18.920;2023-07-13T13:14:50;5.50;;;3.10;;
75340;SDS011;64931;47.562;18.920;2023-07-13T13:17:22;5.20;;;2.90;;
75340;SDS011;64931;47.562;18.920;2023-07-13T13:19:52;10.60;;;3.20;;
75340;SDS011;64931;47.562;18.920;2023-07-13T13:22:21;4.50;;;2.40;;
75340;SDS011;64931;47.562;18.920;2023-07-13T13:24:46;6.30;;;3.00;;
75340;SDS011;64931;47.562;18.920;2023-07-13T13:27:21;4.30;;;2.80;;
75340;SDS011;64931;47.562;18.920;2023-07-13T13:29:48;5.10;;;3.00;;
75340;SDS011;64931;47.562;18.920;2023-07-13T13:32:16;4.30;;;2.70;;
75340;SDS011;64931;47.562;18.920;2023-07-13T13:34:43;3.70;;;2.60;;
75340;SDS011;64931;47.562;18.920;2023-07-13T13:37:16;5.80;;;2.90;;
75340;SDS011;64931;47.562;18.920;2023-07-13T13:39:44;5.00;;;2.80;;
75340;SDS011;64931;47.562;18.920;2023-07-13T13:42:10;6.00;;;2.70;;
75340;SDS011;64931;47.562;18.920;2023-07-13T13:44:36;4.60;;;2.70;;
75340;SDS011;64931;47.562;18.920;2023-07-13T13:47:01;5.00;;;2.40;;
75340;SDS011;64931;47.562;18.920;2023-07-13T13:49:27;6.40;;;2.80;;
75340;SDS011;64931;47.562;18.920;2023-07-13T13:51:54;5.60;;;2.70;;
75340;SDS011;64931;47.562;18.920;2023-07-13T13:54:21;4.00;;;2.70;;
75340;SDS011;64931;47.562;18.920;2023-07-13T13:56:48;7.30;;;2.90;;
75340;SDS011;64931;47.562;18.920;2023-07-13T13:59:15;5.20;;;2.70;;
75340;SDS011;64931;47.562;18.920;2023-07-13T14:01:41;4.70;;;2.80;;
75340;SDS011;64931;47.562;18.920;2023-07-13T14:04:15;4.60;;;3.00;;
75340;SDS011;64931;47.562;18.920;2023-07-13T14:06:43;4.30;;;2.70;;
75340;SDS011;64931;47.562;18.920;2023-07-13T14:09:10;4.00;;;2.50;;
75340;SDS011;64931;47.562;18.920;2023-07-13T14:11:36;6.10;;;3.70;;
75340;SDS011;64931;47.562;18.920;2023-07-13T14:14:02;6.00;;;2.80;;
75340;SDS011;64931;47.562;18.920;2023-07-13T14:16:30;4.20;;;2.70;;
75340;SDS011;64931;47.562;18.920;2023-07-13T14:18:57;5.50;;;2.90;;
75340;SDS011;64931;47.562;18.920;2023-07-13T14:26:18;4.90;;;2.60;;
75340;SDS011;64931;47.562;18.920;2023-07-13T14:28:45;4.10;;;2.60;;
75340;SDS011;64931;47.562;18.920;2023-07-13T14:31:16;4.50;;;2.80;;
75340;SDS011;64931;47.562;18.920;2023-07-13T14:33:42;5.00;;;2.70;;
75340;SDS011;64931;47.562;18.920;2023-07-13T14:36:31;4.10;;;2.60;;
75340;SDS011;64931;47.562;18.920;2023-07-13T14:38:58;4.20;;;2.60;;
75340;SDS011;64931;47.562;18.920;2023-07-13T14:41:26;4.50;;;2.50;;
75340;SDS011;64931;47.562;18.920;2023-07-13T14:43:52;4.80;;;2.60;;
75340;SDS011;64931;47.562;18.920;2023-07-13T14:48:47;5.30;;;2.70;;
75340;SDS011;64931;47.562;18.920;2023-07-13T14:51:12;4.30;;;2.80;;
75340;SDS011;64931;47.562;18.920;2023-07-13T14:53:38;10.70;;;2.90;;
75340;SDS011;64931;47.562;18.920;2023-07-13T14:56:09;6.60;;;2.80;;
75340;SDS011;64931;47.562;18.920;2023-07-13T14:58:35;5.50;;;2.70;;
75340;SDS011;64931;47.562;18.920;2023-07-13T15:01:01;3.90;;;2.80;;
75340;SDS011;64931;47.562;18.920;2023-07-13T15:03:26;6.30;;;2.80;;
75340;SDS011;64931;47.562;18.920;2023-07-13T15:05:51;5.30;;;2.70;;
75340;SDS011;64931;47.562;18.920;2023-07-13T15:08:18;4.70;;;2.90;;
75340;SDS011;64931;47.562;18.920;2023-07-13T15:10:43;5.80;;;2.90;;
75340;SDS011;64931;47.562;18.920;2023-07-13T15:13:13;5.10;;;2.90;;
75340;SDS011;64931;47.562;18.920;2023-07-13T15:15:40;5.60;;;2.90;;
75340;SDS011;64931;47.562;18.920;2023-07-13T15:18:09;5.50;;;2.60;;